Time;durP1;ratioP1;P1;durP2;ratioP2;P2;SDS_P1;SDS_P2;PMS_P1;PMS_P2;Temp;Humidity;BMP_temperature;BMP_pressure;BME280_temperature;BME280_humidity;BME280_pressure;Samples;Min_cycle;Max_cycle;Signal;HPM_P1;HPM_P2
2021/12/16 00:09:36;;;;;;;30.27;12.07;;;;;;;16.99;52.84;103197.44;4937356;29;20034;-59
2021/12/16 00:29:02;;;;;;;32.00;13.52;;;;;;;17.00;52.07;103196.47;4936592;29;20047;-59
2021/12/16 00:31:50;;;;;;;29.50;13.20;;;;;;;16.96;51.43;103186.81;4940544;29;20453;-59
2021/12/16 00:34:04;;;;;;;34.13;14.70;;;;;;;16.97;52.22;103194.84;4937456;29;20493;-60
2021/12/16 00:36:35;;;;;;;31.95;12.82;;;;;;;16.97;52.35;103183.13;4923718;29;20136;-59
2021/12/16 00:39:05;;;;;;;27.00;12.82;;;;;;;16.97;52.32;103183.13;4940689;29;20485;-59
2021/12/16 00:41:30;;;;;;;33.72;13.48;;;;;;;16.95;52.29;103182.38;4940562;29;20035;-60
2021/12/16 00:44:14;;;;;;;27.65;11.73;;;;;;;16.95;51.02;103185.06;4923602;29;20059;-59
2021/12/16 00:54:40;;;;;;;29.10;12.82;;;;;;;16.97;52.05;103193.97;4891434;29;20047;-59
2021/12/16 00:57:11;;;;;;;34.50;13.65;;;;;;;16.98;52.22;103201.09;4938859;29;20048;-59
2021/12/16 00:59:40;;;;;;;38.47;15.60;;;;;;;16.97;52.00;103194.84;4940261;29;20090;-60
2021/12/16 01:02:26;;;;;;;30.25;13.82;;;;;;;16.99;50.86;103202.84;4940110;29;20032;-59
2021/12/16 01:40:06;;;;;;;34.03;12.93;;;;;;;16.95;51.75;103214.84;4939581;29;20167;-59
2021/12/16 01:48:21;;;;;;;27.92;13.75;;;;;;;16.96;51.76;103212.06;4939654;29;20031;-59
2021/12/16 01:50:49;;;;;;;33.67;12.65;;;;;;;16.95;51.00;103213.03;4939123;29;20036;-59
2021/12/16 01:54:03;;;;;;;30.48;13.35;;;;;;;16.95;51.33;103214.84;4939355;29;20046;-59
2021/12/16 01:59:18;;;;;;;32.85;13.65;;;;;;;16.94;51.18;103216.72;4938903;29;20043;-59
2021/12/16 02:01:44;;;;;;;31.45;13.30;;;;;;;16.95;52.62;103228.41;4922846;29;20028;-59
2021/12/16 02:04:40;;;;;;;31.27;13.73;;;;;;;16.96;51.61;103222.00;4938871;29;20578;-59
2021/12/16 02:07:08;;;;;;;29.10;12.15;;;;;;;16.96;51.37;103222.88;4937985;29;20032;-60
2021/12/16 02:09:39;;;;;;;27.73;13.10;;;;;;;16.95;52.21;103217.56;4938841;29;20134;-59
2021/12/16 02:28:30;;;;;;;29.75;13.45;;;;;;;16.94;52.33;103221.28;4919302;29;20075;-59
2021/12/16 02:39:01;;;;;;;35.55;15.32;;;;;;;16.94;52.23;103240.22;4919704;29;20074;-59
2021/12/16 02:41:28;;;;;;;28.38;12.48;;;;;;;16.95;52.15;103242.81;4919350;29;20474;-59
2021/12/16 02:44:15;;;;;;;30.85;13.60;;;;;;;16.94;51.61;103238.38;4917858;29;20059;-59
2021/12/16 02:49:29;;;;;;;29.50;12.55;;;;;;;16.92;52.17;103243.03;4919106;29;20038;-59
2021/12/16 02:51:57;;;;;;;34.33;14.32;;;;;;;16.93;51.71;103235.78;4919309;29;20448;-59
2021/12/16 02:54:22;;;;;;;30.80;12.88;;;;;;;16.93;51.66;103247.47;4919349;29;20071;-59
2021/12/16 02:56:48;;;;;;;35.17;13.82;;;;;;;16.94;51.54;103245.63;4933764;29;20064;-60
2021/12/16 02:59:16;;;;;;;28.55;12.80;;;;;;;16.93;51.42;103241.19;4919090;29;20031;-60
2021/12/16 03:01:46;;;;;;;34.30;13.30;;;;;;;16.95;52.83;103253.63;4919124;28;20028;-59
2021/12/16 03:04:14;;;;;;;31.27;13.05;;;;;;;16.95;51.42;103255.47;4917461;29;20024;-59
2021/12/16 03:06:43;;;;;;;33.55;13.90;;;;;;;16.95;52.36;103242.81;4918638;29;20379;-59
2021/12/16 03:09:10;;;;;;;31.25;12.15;;;;;;;16.96;51.83;103254.50;4917721;29;20047;-59
2021/12/16 03:12:11;;;;;;;27.25;14.25;;;;;;;16.96;52.76;103251.81;4917903;29;20036;-59
2021/12/16 03:14:41;;;;;;;30.98;13.00;;;;;;;16.93;51.43;103252.03;4917629;29;20027;-59
2021/12/16 03:22:18;;;;;;;39.15;15.02;;;;;;;16.91;52.08;103253.97;4929767;29;20504;-59
2021/12/16 03:27:46;;;;;;;32.22;13.70;;;;;;;16.92;52.23;103250.31;4938046;29;20059;-59
2021/12/16 03:35:31;;;;;;;34.22;14.10;;;;;;;16.89;52.10;103249.53;4937103;29;20070;-59
2021/12/16 03:38:08;;;;;;;34.38;13.60;;;;;;;16.90;52.86;103247.69;4937063;29;20489;-60
2021/12/16 03:40:35;;;;;;;32.00;12.93;;;;;;;16.91;52.20;103245.84;4935747;29;20035;-59
2021/12/16 03:43:08;;;;;;;30.17;13.32;;;;;;;16.92;51.54;103251.16;4920346;29;20481;-59
2021/12/16 03:48:49;;;;;;;28.88;12.38;;;;;;;16.91;51.65;103253.97;4937458;29;20050;-60
2021/12/16 03:51:27;;;;;;;34.47;13.02;;;;;;;16.89;52.05;103254.06;4920177;29;20023;-59
2021/12/16 03:53:56;;;;;;;32.10;14.13;;;;;;;16.85;51.79;103249.88;4937487;29;20385;-59
2021/12/16 03:56:23;;;;;;;27.48;12.77;;;;;;;16.88;52.24;103258.66;4936164;29;20026;-59
2021/12/16 03:58:50;;;;;;;29.77;13.27;;;;;;;16.89;51.57;103251.38;4940326;29;20027;-60
2021/12/16 04:01:20;;;;;;;30.25;12.95;;;;;;;16.87;52.42;103259.63;4940864;29;20036;-59
2021/12/16 04:03:46;;;;;;;27.85;12.98;;;;;;;16.87;51.53;103266.88;4924353;29;20028;-59
2021/12/16 04:06:12;;;;;;;29.23;13.00;;;;;;;16.87;51.67;103265.03;4923956;29;20023;-59
2021/12/16 04:08:37;;;;;;;28.27;13.10;;;;;;;16.86;51.92;103267.88;4941230;29;20166;-59
2021/12/16 04:11:22;;;;;;;33.85;14.85;;;;;;;16.80;52.11;103262.88;4941168;29;20031;-60
2021/12/16 04:14:07;;;;;;;34.63;14.18;;;;;;;16.85;52.64;103261.56;4941006;29;20043;-59
2021/12/16 04:16:35;;;;;;;34.67;14.25;;;;;;;16.83;52.29;103268.91;4940967;29;20033;-60
2021/12/16 04:19:07;;;;;;;33.00;13.88;;;;;;;16.82;51.43;103267.22;4940597;29;20039;-59
2021/12/16 04:21:33;;;;;;;33.75;14.07;;;;;;;16.80;51.58;103262.88;4940338;29;20497;-60
2021/12/16 04:23:59;;;;;;;32.55;13.85;;;;;;;16.79;52.69;103272.84;4940853;29;20036;-59
2021/12/16 04:26:27;;;;;;;31.48;12.75;;;;;;;16.78;51.83;103265.69;4923918;29;20042;-59
2021/12/16 04:28:53;;;;;;;33.55;13.15;;;;;;;16.76;51.23;103273.06;4940742;29;20086;-59
2021/12/16 04:31:19;;;;;;;29.27;13.98;;;;;;;16.78;51.41;103270.22;4941036;29;20027;-59
2021/12/16 04:33:45;;;;;;;29.67;13.90;;;;;;;16.77;52.53;103274.81;4940778;29;20063;-59
2021/12/16 04:36:12;;;;;;;33.22;14.07;;;;;;;16.78;51.86;103276.50;4923803;29;20043;-60
2021/12/16 04:38:39;;;;;;;32.35;14.35;;;;;;;16.79;52.51;103274.69;4940858;29;20035;-59
2021/12/16 04:41:09;;;;;;;44.30;14.88;;;;;;;16.79;51.41;103277.38;4940804;29;20051;-59
2021/12/16 04:43:40;;;;;;;32.40;15.27;;;;;;;16.79;51.57;103278.25;4924121;29;20520;-59
2021/12/16 04:46:11;;;;;;;29.80;12.93;;;;;;;16.79;51.85;103278.25;4924165;29;20036;-60
2021/12/16 04:48:37;;;;;;;28.25;13.15;;;;;;;16.81;52.29;103280.84;4939350;29;20024;-59
2021/12/16 04:51:04;;;;;;;31.25;12.73;;;;;;;16.80;51.67;103282.72;4923145;29;20031;-59
2021/12/16 04:53:29;;;;;;;37.88;15.05;;;;;;;16.79;52.77;103278.25;4923058;29;20692;-60
2021/12/16 04:55:55;;;;;;;38.88;14.00;;;;;;;16.79;51.29;103283.66;4939688;29;20031;-59
2021/12/16 04:58:21;;;;;;;34.05;14.13;;;;;;;16.80;52.17;103277.28;4940213;29;20366;-59
2021/12/16 05:00:46;;;;;;;29.75;12.82;;;;;;;16.80;51.81;103281.84;4940279;29;20059;-59
2021/12/16 05:03:11;;;;;;;29.50;13.18;;;;;;;16.81;52.08;103275.41;4940093;29;20067;-59
2021/12/16 05:05:37;;;;;;;33.67;13.85;;;;;;;16.81;52.50;103276.28;4940059;29;20035;-59
2021/12/16 05:08:03;;;;;;;31.17;13.43;;;;;;;16.81;52.00;103276.28;4939898;29;20362;-60
2021/12/16 05:10:28;;;;;;;34.53;14.07;;;;;;;16.81;52.09;103270.00;4938916;29;20036;-59
2021/12/16 05:12:58;;;;;;;28.55;15.05;;;;;;;16.81;51.83;103270.88;4940057;29;20035;-60
2021/12/16 05:15:29;;;;;;;32.65;14.48;;;;;;;16.80;52.84;103268.28;4923320;29;20064;-59
2021/12/16 05:17:56;;;;;;;31.15;14.25;;;;;;;16.78;51.70;103268.38;4923633;29;20028;-60
2021/12/16 05:20:25;;;;;;;29.75;13.20;;;;;;;16.77;51.91;103265.81;4940006;29;20555;-59
2021/12/16 05:28:23;;;;;;;30.10;14.00;;;;;;;16.76;53.08;103269.47;4939580;29;20039;-59
2021/12/16 05:30:50;;;;;;;31.60;13.95;;;;;;;16.76;51.65;103275.75;4939607;29;20396;-59
2021/12/16 05:33:16;;;;;;;31.73;13.50;;;;;;;16.76;52.89;103262.22;4939923;29;20024;-59
2021/12/16 05:35:42;;;;;;;31.98;13.13;;;;;;;16.75;52.53;103265.91;4939438;29;20501;-59
2021/12/16 05:38:07;;;;;;;32.53;13.32;;;;;;;16.77;52.32;103277.50;4922756;29;20043;-59
2021/12/16 05:40:34;;;;;;;37.10;13.32;;;;;;;16.75;52.71;103276.72;4922663;29;20031;-60
2021/12/16 05:43:04;;;;;;;30.40;14.10;;;;;;;16.76;51.74;103274.88;4922717;29;20035;-59
2021/12/16 05:45:29;;;;;;;31.92;13.77;;;;;;;16.73;52.71;103284.09;4938197;29;20139;-59
2021/12/16 05:47:57;;;;;;;33.90;14.25;;;;;;;16.69;52.39;103279.91;4939315;29;20504;-59
2021/12/16 05:50:25;;;;;;;31.23;14.18;;;;;;;16.68;52.53;103277.28;4939582;29;20040;-59
2021/12/16 05:52:50;;;;;;;36.85;13.00;;;;;;;16.66;52.27;103285.53;4939164;29;20445;-59
2021/12/16 05:55:16;;;;;;;27.33;13.52;;;;;;;16.66;51.64;103288.22;4938057;29;20028;-60
2021/12/16 05:57:42;;;;;;;27.02;13.27;;;;;;;16.66;51.62;103299.06;4939072;29;20038;-59
2021/12/16 06:00:17;;;;;;;31.27;13.60;;;;;;;16.64;52.30;103305.53;4939300;29;20046;-59
2021/12/16 06:02:42;;;;;;;32.17;13.65;;;;;;;16.57;51.76;103293.41;4939003;29;20528;-59
2021/12/16 06:05:08;;;;;;;32.15;14.60;;;;;;;16.55;51.57;103293.53;4922316;29;20028;-59
2021/12/16 06:07:34;;;;;;;32.30;14.07;;;;;;;16.62;52.27;103302.94;4939167;28;20106;-59
2021/12/16 06:09:59;;;;;;;36.75;14.25;;;;;;;16.62;52.48;103299.34;4939085;29;20060;-60
2021/12/16 06:12:26;;;;;;;28.70;13.00;;;;;;;16.60;52.92;103309.44;4938819;29;20413;-59
2021/12/16 06:15:40;;;;;;;37.53;14.48;;;;;;;16.57;51.28;103321.34;4938603;29;20020;-59
2021/12/16 06:28:25;;;;;;;32.28;14.00;;;;;;;16.50;51.14;103330.81;4938656;29;20389;-59
2021/12/16 06:30:51;;;;;;;32.08;13.70;;;;;;;16.46;51.76;103329.31;4938633;29;20031;-60
2021/12/16 06:33:25;;;;;;;36.42;14.52;;;;;;;16.49;52.19;103345.31;4938415;29;20040;-59
2021/12/16 06:35:52;;;;;;;26.92;13.05;;;;;;;16.51;51.52;103345.22;4938612;29;20026;-60
2021/12/16 06:38:19;;;;;;;37.28;13.65;;;;;;;16.48;52.33;103349.00;4938882;29;20044;-59
2021/12/16 06:40:45;;;;;;;33.03;13.35;;;;;;;16.50;52.92;103344.34;4938513;29;20066;-59
2021/12/16 06:43:12;;;;;;;31.10;13.88;;;;;;;16.48;52.45;103343.59;4938425;29;20024;-59
2021/12/16 06:45:40;;;;;;;46.88;15.77;;;;;;;16.50;52.17;103349.75;4921209;29;20020;-61
2021/12/16 06:48:11;;;;;;;32.67;14.88;;;;;;;16.50;51.52;103346.19;4938281;29;20031;-59
2021/12/16 06:50:55;;;;;;;28.20;13.15;;;;;;;16.46;51.87;103342.84;4922021;29;20031;-59
2021/12/16 06:53:30;;;;;;;34.67;14.30;;;;;;;16.46;52.86;103345.53;4923331;29;20054;-59
2021/12/16 06:56:11;;;;;;;33.78;14.32;;;;;;;16.39;52.83;103336.09;4921707;29;20030;-59
2021/12/16 06:59:05;;;;;;;33.67;14.48;;;;;;;16.46;51.61;103341.97;4922853;29;20032;-59
2021/12/16 07:01:38;;;;;;;35.78;15.07;;;;;;;16.45;52.41;103342.91;4925085;29;20119;-59
2021/12/16 07:04:06;;;;;;;38.88;14.77;;;;;;;16.44;51.15;103347.50;4937733;29;20484;-59
2021/12/16 07:06:33;;;;;;;31.00;14.63;;;;;;;16.45;51.31;103346.50;4937884;29;20504;-59
2021/12/16 07:09:04;;;;;;;32.92;14.23;;;;;;;16.43;51.46;103345.75;4937692;29;20393;-59
2021/12/16 07:11:30;;;;;;;31.95;13.50;;;;;;;16.42;52.46;103352.13;4937727;29;20024;-60
2021/12/16 07:13:58;;;;;;;31.45;15.25;;;;;;;16.45;52.05;103348.34;4936068;29;20023;-59
2021/12/16 07:16:26;;;;;;;33.67;15.45;;;;;;;16.43;52.70;103361.97;4937733;29;20047;-59
2021/12/16 07:18:52;;;;;;;30.80;14.35;;;;;;;16.40;52.74;103362.19;4936733;29;20028;-59
2021/12/16 07:21:17;;;;;;;29.92;13.07;;;;;;;16.37;52.32;103367.81;4937213;29;20526;-59
2021/12/16 07:23:43;;;;;;;35.92;14.73;;;;;;;16.35;51.40;103364.34;4920834;29;20040;-60
2021/12/16 07:26:08;;;;;;;29.98;14.00;;;;;;;16.32;51.85;103364.56;4920978;29;20043;-59
2021/12/16 07:28:34;;;;;;;28.55;13.10;;;;;;;16.33;52.58;103365.44;4937584;29;20043;-59
2021/12/16 07:30:59;;;;;;;34.08;14.65;;;;;;;16.28;51.64;103363.00;4937423;29;20040;-59
2021/12/16 07:33:25;;;;;;;29.52;12.77;;;;;;;16.28;51.80;103371.13;4936740;29;20027;-59
2021/12/16 07:35:51;;;;;;;29.13;13.82;;;;;;;16.26;51.00;103370.38;4937369;29;20035;-59
2021/12/16 07:38:17;;;;;;;34.55;13.35;;;;;;;16.20;51.47;103370.78;4937063;29;20031;-59
2021/12/16 07:40:45;;;;;;;28.88;14.82;;;;;;;16.20;51.82;103393.28;4938044;29;20411;-59
2021/12/16 07:43:23;;;;;;;31.08;12.88;;;;;;;16.19;51.46;103399.66;4937449;29;20028;-59
2021/12/16 07:45:49;;;;;;;31.92;14.15;;;;;;;16.14;51.84;103392.81;4922151;29;20028;-59
2021/12/16 07:48:16;;;;;;;28.52;12.52;;;;;;;16.13;52.49;103401.91;4937704;29;20386;-59
2021/12/16 07:50:43;;;;;;;27.20;13.23;;;;;;;16.11;51.82;103406.53;4937957;29;20095;-59
2021/12/16 07:53:09;;;;;;;34.50;13.32;;;;;;;16.10;50.95;103411.09;4920538;29;20497;-59
2021/12/16 07:55:35;;;;;;;35.05;14.10;;;;;;;16.08;51.75;103414.88;4936872;29;20038;-59
2021/12/16 07:58:01;;;;;;;34.92;15.27;;;;;;;16.07;52.15;103410.44;4919996;29;20035;-59
2021/12/16 08:00:32;;;;;;;32.85;14.25;;;;;;;16.07;51.83;103414.03;4937012;29;20408;-59
2021/12/16 08:02:57;;;;;;;31.23;13.75;;;;;;;16.07;52.03;103432.94;4920358;29;20097;-59
2021/12/16 08:05:25;;;;;;;30.98;13.95;;;;;;;16.08;51.04;103431.13;4936890;29;20035;-59
2021/12/16 08:07:50;;;;;;;37.30;14.57;;;;;;;16.10;51.15;103434.56;4937140;29;20039;-59
2021/12/16 08:10:19;;;;;;;28.55;13.27;;;;;;;16.12;51.72;103438.03;4937371;29;20393;-59
2021/12/16 08:12:45;;;;;;;35.75;14.45;;;;;;;16.14;52.21;103444.19;4938696;29;20024;-59
2021/12/16 08:15:10;;;;;;;31.77;13.48;;;;;;;16.16;52.01;103447.69;4938586;29;20028;-60
2021/12/16 08:17:36;;;;;;;33.00;14.60;;;;;;;16.19;52.26;103444.78;4938725;29;20039;-60
2021/12/16 08:20:04;;;;;;;27.27;13.38;;;;;;;16.21;52.21;103453.66;4939180;29;20036;-60
2021/12/16 08:22:30;;;;;;;35.33;16.05;;;;;;;16.19;51.60;103451.03;4940021;29;20552;-59
2021/12/16 08:24:55;;;;;;;29.90;14.05;;;;;;;16.24;52.63;103462.44;4922870;29;20111;-60
2021/12/16 08:27:21;;;;;;;32.80;15.05;;;;;;;16.28;52.52;103465.78;4939462;29;20115;-59
2021/12/16 08:29:46;;;;;;;29.20;13.35;;;;;;;16.30;52.29;103463.88;4939132;29;20024;-59
2021/12/16 08:32:12;;;;;;;35.88;15.88;;;;;;;16.29;52.24;103468.41;4939045;29;20027;-59
2021/12/16 08:34:39;;;;;;;35.05;14.43;;;;;;;16.35;52.70;103477.97;4938636;29;20036;-60
2021/12/16 08:37:09;;;;;;;31.88;13.35;;;;;;;16.38;51.11;103485.88;4938611;29;20039;-59
2021/12/16 08:39:35;;;;;;;31.52;13.38;;;;;;;16.43;51.11;103475.63;4922258;29;20028;-59
2021/12/16 08:42:02;;;;;;;29.90;14.25;;;;;;;16.45;51.49;103470.97;4938798;29;20457;-59
2021/12/16 08:44:28;;;;;;;33.20;13.25;;;;;;;16.49;50.81;103471.63;4940484;29;20507;-59
2021/12/16 08:46:58;;;;;;;33.67;14.68;;;;;;;16.50;51.15;103482.34;4940620;29;20028;-59
2021/12/16 08:49:23;;;;;;;29.42;15.93;;;;;;;16.57;50.93;103488.25;4923222;29;20030;-59
2021/12/16 08:51:53;;;;;;;33.03;15.13;;;;;;;16.62;50.95;103480.69;4940120;29;20031;-59
2021/12/16 08:54:19;;;;;;;35.13;15.10;;;;;;;16.66;51.86;103488.50;4940348;29;20050;-59
2021/12/16 08:56:47;;;;;;;32.25;16.45;;;;;;;16.68;51.17;103497.38;4940568;29;20167;-59
2021/12/16 08:59:13;;;;;;;34.30;13.95;;;;;;;16.73;51.57;103488.94;4940343;29;20043;-59
2021/12/16 09:01:43;;;;;;;33.90;14.85;;;;;;;16.78;50.94;103494.91;4922960;29;20027;-59
2021/12/16 09:04:08;;;;;;;30.80;14.52;;;;;;;16.80;51.13;103506.53;4923196;29;20050;-59
2021/12/16 09:06:34;;;;;;;33.22;16.30;;;;;;;16.84;52.07;103508.91;4923435;29;20441;-59
2021/12/16 09:09:00;;;;;;;28.15;14.05;;;;;;;16.85;51.38;103497.13;4939973;29;20393;-59
2021/12/16 09:11:28;;;;;;;37.17;15.85;;;;;;;16.91;51.17;103512.06;4939805;29;20118;-60
2021/12/16 09:13:56;;;;;;;33.72;14.90;;;;;;;16.97;50.98;103513.50;4940030;29;20441;-59
2021/12/16 09:16:24;;;;;;;37.42;14.70;;;;;;;17.02;50.83;103508.63;4939589;29;20522;-59
2021/12/16 09:18:49;;;;;;;34.55;14.38;;;;;;;17.09;52.45;103509.94;4939529;29;20123;-59
2021/12/16 09:21:21;;;;;;;35.33;15.20;;;;;;;17.12;51.52;103516.00;4939705;29;20067;-60
2021/12/16 09:23:47;;;;;;;34.63;14.80;;;;;;;17.20;52.31;103510.06;4939929;29;20032;-60
2021/12/16 09:26:13;;;;;;;33.58;14.70;;;;;;;17.25;52.01;103513.34;4922698;29;20032;-59
2021/12/16 09:28:40;;;;;;;36.00;16.58;;;;;;;17.30;51.15;103533.72;4940005;29;20038;-59
2021/12/16 09:31:10;;;;;;;35.83;16.55;;;;;;;17.32;50.70;103518.22;4939735;29;20070;-59
2021/12/16 09:33:41;;;;;;;30.83;14.50;;;;;;;17.42;51.53;103513.00;4939732;29;20082;-59
2021/12/16 09:36:06;;;;;;;30.95;14.45;;;;;;;17.50;50.86;103523.31;4939482;29;20032;-59
2021/12/16 09:38:32;;;;;;;36.47;16.27;;;;;;;17.55;51.76;103522.03;4939535;29;20505;-59
2021/12/16 09:40:58;;;;;;;37.22;15.73;;;;;;;17.66;51.63;103529.41;4923083;29;20058;-60
2021/12/16 09:43:29;;;;;;;30.67;14.70;;;;;;;17.91;50.96;103532.09;4939572;29;20090;-60
2021/12/16 09:45:59;;;;;;;36.97;15.07;;;;;;;17.97;51.14;103527.13;4938360;29;20024;-60
2021/12/16 09:48:25;;;;;;;30.98;14.82;;;;;;;17.93;51.05;103525.59;4939701;29;20102;-60
2021/12/16 09:50:51;;;;;;;34.58;15.93;;;;;;;18.20;50.98;103525.41;4939312;29;20078;-60
2021/12/16 09:53:18;;;;;;;36.63;16.23;;;;;;;18.47;50.41;103511.66;4940039;29;20072;-60
2021/12/16 09:55:46;;;;;;;33.45;15.07;;;;;;;18.71;50.08;103512.53;4939441;29;20024;-59
2021/12/16 09:58:12;;;;;;;34.60;14.88;;;;;;;18.89;49.79;103499.41;4940285;29;20047;-59
2021/12/16 10:00:37;;;;;;;34.85;15.45;;;;;;;19.22;50.30;103509.50;4938900;29;20036;-59
2021/12/16 10:03:03;;;;;;;27.20;14.75;;;;;;;19.48;49.53;103520.13;4939683;29;20087;-59
2021/12/16 10:05:29;;;;;;;34.42;14.40;;;;;;;19.72;49.41;103526.31;4923048;29;20401;-59
2021/12/16 10:07:55;;;;;;;37.17;15.48;;;;;;;19.96;49.04;103523.47;4940215;29;20174;-60
2021/12/16 10:10:24;;;;;;;31.58;15.32;;;;;;;20.20;49.20;103521.47;4939641;29;20494;-60
2021/12/16 10:12:52;;;;;;;34.13;17.40;;;;;;;20.42;48.79;103526.03;4922743;29;20024;-60
2021/12/16 10:18:01;;;;;;;32.28;15.55;;;;;;;20.79;48.60;103530.16;4939550;29;20041;-60
2021/12/16 10:20:42;;;;;;;34.78;16.10;;;;;;;21.00;48.59;103521.97;4939510;29;20103;-60
2021/12/16 10:23:32;;;;;;;34.00;15.80;;;;;;;21.19;47.65;103516.69;4938845;29;20443;-59
2021/12/16 10:26:01;;;;;;;26.35;14.05;;;;;;;21.45;47.63;103525.34;4938848;29;20032;-59
2021/12/16 10:28:31;;;;;;;30.65;14.35;;;;;;;21.63;47.04;103522.88;4921375;29;20049;-60
2021/12/16 10:31:04;;;;;;;29.70;13.90;;;;;;;21.84;46.81;103523.69;4937860;29;20031;-60
2021/12/16 10:33:46;;;;;;;35.47;14.98;;;;;;;22.04;47.14;103520.06;4937699;29;20027;-60
2021/12/16 10:36:38;;;;;;;36.53;14.73;;;;;;;22.23;47.17;103514.66;4936072;29;20028;-60
2021/12/16 10:39:26;;;;;;;33.05;15.13;;;;;;;22.42;46.56;103525.63;4937238;29;20489;-61
2021/12/16 10:42:00;;;;;;;33.13;14.75;;;;;;;22.58;46.27;103515.00;4937264;29;20047;-60
2021/12/16 10:44:32;;;;;;;35.00;14.90;;;;;;;22.75;45.50;103516.22;4937259;29;20024;-60
2021/12/16 10:47:13;;;;;;;27.77;14.65;;;;;;;22.90;45.31;103519.38;4937074;29;20123;-60
2021/12/16 10:49:42;;;;;;;27.65;15.55;;;;;;;23.01;45.75;103511.03;4937063;29;20032;-61
2021/12/16 10:52:10;;;;;;;29.65;14.25;;;;;;;23.15;44.91;103513.31;4937028;29;20042;-60
2021/12/16 10:54:38;;;;;;;30.00;14.55;;;;;;;23.26;45.28;103521.34;4937118;29;20038;-60
2021/12/16 10:57:16;;;;;;;32.47;15.45;;;;;;;23.34;44.54;103517.91;4936999;29;20429;-60
2021/12/16 10:59:49;;;;;;;38.05;14.30;;;;;;;23.40;44.75;103510.00;4936775;29;20472;-60
2021/12/16 11:02:27;;;;;;;35.08;14.15;;;;;;;23.54;45.12;103514.13;4936832;29;20030;-60
2021/12/16 11:05:00;;;;;;;28.58;14.38;;;;;;;23.61;44.57;103520.75;4936677;29;20366;-60
2021/12/16 11:07:31;;;;;;;27.75;13.38;;;;;;;23.67;44.10;103514.69;4936628;29;20042;-60
2021/12/16 11:10:10;;;;;;;27.33;13.68;;;;;;;23.75;44.68;103518.41;4936438;29;20118;-60
2021/12/16 11:12:41;;;;;;;30.92;15.38;;;;;;;23.84;44.01;103504.81;4936440;29;20028;-60
2021/12/16 11:15:29;;;;;;;29.35;14.90;;;;;;;23.93;44.23;103510.22;4936443;29;20023;-61
2021/12/16 11:18:11;;;;;;;31.63;13.65;;;;;;;23.99;43.33;103512.38;4936587;29;20507;-60
2021/12/16 11:20:41;;;;;;;26.73;13.57;;;;;;;24.02;44.16;103511.19;4919382;29;20049;-60
2021/12/16 11:23:21;;;;;;;24.60;14.02;;;;;;;24.07;43.34;103504.25;4936152;29;20059;-60
2021/12/16 11:25:53;;;;;;;23.92;13.38;;;;;;;24.13;43.66;103500.94;4936657;29;20098;-60
2021/12/16 11:28:25;;;;;;;23.05;12.60;;;;;;;24.21;43.62;103503.78;4936493;29;20473;-58
2021/12/16 11:31:05;;;;;;;31.17;14.57;;;;;;;24.30;43.54;103493.78;4919312;29;20039;-60
2021/12/16 11:33:38;;;;;;;25.23;13.15;;;;;;;24.34;43.13;103497.94;4919254;29;20224;-60
2021/12/16 11:36:25;;;;;;;22.60;12.88;;;;;;;24.39;43.42;103495.59;4936101;29;20028;-60
2021/12/16 11:38:54;;;;;;;26.27;14.35;;;;;;;24.45;42.59;103500.47;4936279;29;20042;-60
2021/12/16 11:41:30;;;;;;;29.88;13.40;;;;;;;24.48;42.73;103504.78;4919316;29;20028;-60
2021/12/16 11:44:11;;;;;;;25.63;12.75;;;;;;;24.52;42.29;103507.03;4936298;29;20020;-61
2021/12/16 11:46:39;;;;;;;29.77;13.77;;;;;;;24.53;42.24;103508.78;4936089;29;20389;-61
2021/12/16 11:49:15;;;;;;;29.58;13.55;;;;;;;24.52;42.11;103501.53;4936213;29;20031;-60
2021/12/16 11:51:45;;;;;;;24.90;12.52;;;;;;;24.52;42.61;103506.16;4936094;29;20151;-60
2021/12/16 11:54:39;;;;;;;24.15;12.80;;;;;;;24.53;42.50;103508.78;4936349;29;20028;-61
2021/12/16 11:57:04;;;;;;;25.50;13.23;;;;;;;24.54;42.47;103507.72;4935888;29;20023;-60
2021/12/16 11:59:47;;;;;;;23.92;13.50;;;;;;;24.59;41.78;103510.03;4936045;29;20496;-60
2021/12/16 12:02:26;;;;;;;27.98;13.50;;;;;;;24.66;42.09;103492.78;4935922;29;20024;-60
2021/12/16 12:04:54;;;;;;;29.13;14.32;;;;;;;24.68;41.96;103501.72;4935940;29;20437;-60
2021/12/16 12:07:19;;;;;;;27.08;14.30;;;;;;;24.67;41.86;103504.63;4935974;29;20036;-60
2021/12/16 12:09:47;;;;;;;28.33;13.90;;;;;;;24.69;41.86;103508.94;4935832;29;20032;-59
2021/12/16 12:12:13;;;;;;;26.08;14.35;;;;;;;24.53;42.01;103503.28;4919224;29;20508;-60
2021/12/16 12:14:41;;;;;;;25.92;13.25;;;;;;;24.45;42.24;103499.59;4935810;29;20444;-60
2021/12/16 12:17:15;;;;;;;27.33;15.20;;;;;;;24.40;41.76;103500.03;4935810;29;20027;-60
2021/12/16 12:19:50;;;;;;;27.80;13.90;;;;;;;24.33;42.02;103507.16;4938904;29;20512;-60
2021/12/16 12:22:24;;;;;;;24.65;12.43;;;;;;;24.16;42.54;103502.50;4939194;29;20087;-60
2021/12/16 12:24:50;;;;;;;28.83;13.52;;;;;;;24.01;42.16;103501.28;4939572;29;20040;-60
2021/12/16 12:27:26;;;;;;;27.38;13.85;;;;;;;24.04;41.75;103514.63;4907199;29;20035;-60
2021/12/16 12:29:57;;;;;;;25.23;12.10;;;;;;;24.05;42.62;103502.69;4922406;29;20036;-60
2021/12/16 12:32:41;;;;;;;26.45;13.10;;;;;;;24.07;42.13;103497.91;4950336;29;20416;-60
2021/12/16 12:35:20;;;;;;;22.90;12.95;;;;;;;24.15;41.96;103495.28;4958559;29;20035;-60
2021/12/16 12:37:48;;;;;;;24.55;11.85;;;;;;;24.17;42.08;103490.56;4958590;29;20024;-60
2021/12/16 12:40:24;;;;;;;24.58;12.70;;;;;;;24.19;41.92;103491.25;4957822;29;20027;-60
2021/12/16 12:42:52;;;;;;;23.70;12.20;;;;;;;24.19;42.15;103494.00;4958400;29;20046;-60
2021/12/16 12:45:21;;;;;;;23.25;12.68;;;;;;;24.10;42.35;103492.16;4945844;29;20027;-60
2021/12/16 12:47:50;;;;;;;24.90;12.30;;;;;;;24.02;42.69;103484.69;4939200;29;20429;-60
2021/12/16 12:50:20;;;;;;;26.33;13.93;;;;;;;24.04;42.72;103490.00;4939082;29;20028;-60
2021/12/16 12:52:49;;;;;;;23.60;11.48;;;;;;;24.04;42.59;103487.25;4938875;29;20050;-60
2021/12/16 12:55:23;;;;;;;23.75;13.05;;;;;;;24.02;41.79;103481.06;4938893;29;20444;-60
2021/12/16 12:57:48;;;;;;;23.60;12.63;;;;;;;23.98;41.97;103487.88;4938908;29;20071;-60
2021/12/16 13:00:23;;;;;;;21.52;11.93;;;;;;;23.96;42.19;103493.50;4939033;29;20106;-60
2021/12/16 13:02:55;;;;;;;23.52;11.95;;;;;;;23.95;42.22;103486.31;4939147;29;20385;-59
2021/12/16 13:05:21;;;;;;;23.73;11.82;;;;;;;23.90;42.52;103471.34;4938682;29;20028;-60
2021/12/16 13:07:54;;;;;;;26.40;12.48;;;;;;;23.93;42.20;103482.84;4951173;29;20382;-60
2021/12/16 13:10:23;;;;;;;24.02;11.48;;;;;;;23.94;42.87;103479.09;4957937;29;20051;-60
2021/12/16 13:13:17;;;;;;;25.15;11.88;;;;;;;23.95;42.88;103491.78;4957938;29;20086;-60
2021/12/16 13:15:53;;;;;;;26.17;11.55;;;;;;;23.90;42.31;103472.19;4957693;29;20035;-60
2021/12/16 13:27:26;;;;;;;21.10;12.18;;;;;;;24.01;42.74;103487.59;4919774;29;20397;-60
2021/12/16 13:32:50;;;;;;;22.73;11.77;;;;;;;24.17;42.52;103491.41;4919673;29;20036;-60
2021/12/16 13:35:32;;;;;;;26.45;12.05;;;;;;;24.32;43.22;103489.00;4919324;29;20084;-60
2021/12/16 13:37:58;;;;;;;30.15;12.52;;;;;;;24.56;43.55;103485.66;4919409;29;20111;-60
2021/12/16 13:40:29;;;;;;;22.88;12.82;;;;;;;24.99;43.48;103490.34;4919274;29;20524;-60
2021/12/16 13:42:59;;;;;;;25.45;12.40;;;;;;;25.69;42.84;103486.56;4919124;29;20512;-60
2021/12/16 13:45:38;;;;;;;22.83;12.52;;;;;;;26.99;41.04;103489.56;4919114;29;20024;-59
2021/12/16 14:02:55;;;;;;;22.90;11.65;;;;;;;31.01;34.76;103468.88;4918803;29;20079;-60
2021/12/16 14:05:45;;;;;;;21.23;11.65;;;;;;;30.70;34.87;103468.34;4917552;29;20024;-60
2021/12/16 14:08:29;;;;;;;19.42;11.43;;;;;;;30.30;34.60;103473.41;4918590;29;20103;-61
2021/12/16 14:10:58;;;;;;;24.52;12.10;;;;;;;29.92;34.50;103475.53;4918560;29;20028;-60